Time;durP1;ratioP1;P1;durP2;ratioP2;P2;SDS_P1;SDS_P2;PMS_P1;PMS_P2;Temp;Humidity;BMP_temperature;BMP_pressure;BME280_temperature;BME280_humidity;BME280_pressure;Samples;Min_cycle;Max_cycle;Signal;HPM_P1;HPM_P2
2021/12/02 00:00:58;;;;;;;7.97;4.38;;;;;;;4.58;86.97;99808.19;5133187;27;20076;-79
2021/12/02 00:03:24;;;;;;;11.68;4.95;;;;;;;4.69;86.88;99821.59;5133351;27;20058;-78
2021/12/02 00:05:50;;;;;;;11.32;4.30;;;;;;;4.68;86.58;99825.19;5114552;28;20077;-80
2021/12/02 00:08:16;;;;;;;14.25;4.97;;;;;;;4.66;86.97;99821.78;5133413;28;20023;-78
2021/12/02 00:10:43;;;;;;;7.90;4.97;;;;;;;4.65;87.18;99829.78;5133649;28;20019;-79
2021/12/02 00:13:09;;;;;;;12.05;4.40;;;;;;;4.69;87.49;99842.66;5133036;28;20049;-79
2021/12/02 00:15:39;;;;;;;12.23;5.13;;;;;;;4.62;87.34;99837.81;5115375;28;20042;-80
2021/12/02 00:21:06;;;;;;;16.20;4.93;;;;;;;4.66;88.18;99826.19;5133676;28;20034;-78
2021/12/02 00:23:34;;;;;;;11.77;4.22;;;;;;;4.64;87.76;99833.31;5114893;28;20031;-78
2021/12/02 00:26:12;;;;;;;13.70;4.60;;;;;;;4.66;87.62;99831.47;5114846;28;20031;-78
2021/12/02 00:28:39;;;;;;;9.27;4.75;;;;;;;4.58;88.25;99831.03;5114101;28;20537;-78
2021/12/02 00:31:05;;;;;;;14.00;4.82;;;;;;;4.66;88.36;99842.84;5132330;28;20457;-79
2021/12/02 00:33:33;;;;;;;9.23;4.40;;;;;;;4.63;88.22;99834.28;5133201;28;20057;-79
2021/12/02 00:35:59;;;;;;;11.27;4.32;;;;;;;4.66;88.36;99839.38;5133446;28;20095;-79
2021/12/02 00:38:26;;;;;;;13.48;5.13;;;;;;;4.63;88.45;99837.75;5133081;28;20023;-78
2021/12/02 00:40:52;;;;;;;9.75;4.50;;;;;;;4.67;88.45;99836.63;5132189;28;20027;-78
2021/12/02 00:43:19;;;;;;;11.43;4.95;;;;;;;4.64;89.16;99836.81;5114808;28;20068;-79
2021/12/02 00:45:45;;;;;;;9.30;4.10;;;;;;;4.63;88.32;99829.84;5132556;28;20122;-78
2021/12/02 00:48:15;;;;;;;8.88;5.07;;;;;;;4.58;88.26;99823.13;5133108;28;20035;-78
2021/12/02 00:50:46;;;;;;;10.60;5.00;;;;;;;4.63;88.69;99827.22;5132763;27;20035;-80
2021/12/02 00:53:11;;;;;;;11.52;5.15;;;;;;;4.51;88.39;99818.19;5133221;27;20023;-78
2021/12/02 00:55:41;;;;;;;21.45;5.68;;;;;;;4.47;88.66;99806.16;5132767;28;20031;-80
2021/12/02 00:58:07;;;;;;;12.23;4.95;;;;;;;4.54;89.19;99817.19;5132649;28;20031;-79
2021/12/02 01:00:33;;;;;;;14.88;5.22;;;;;;;4.56;89.02;99825.88;5114407;28;20026;-79
2021/12/02 01:03:00;;;;;;;13.55;5.07;;;;;;;4.51;89.33;99817.34;5132757;28;20104;-77
2021/12/02 01:05:27;;;;;;;9.27;4.45;;;;;;;4.52;89.07;99819.03;5114531;28;20055;-78
2021/12/02 01:07:53;;;;;;;11.27;4.93;;;;;;;4.49;89.76;99827.13;5132287;28;20035;-79
2021/12/02 01:10:21;;;;;;;13.10;5.15;;;;;;;4.43;89.99;99817.75;5133860;27;20431;-79
2021/12/02 01:12:49;;;;;;;9.05;4.18;;;;;;;4.46;88.82;99825.50;5136558;27;20072;-79
2021/12/02 01:15:15;;;;;;;13.57;4.75;;;;;;;4.21;89.02;99786.50;5118571;27;20042;-79
2021/12/02 01:17:40;;;;;;;11.73;4.80;;;;;;;4.44;90.10;99834.41;5135954;27;20019;-78
2021/12/02 01:20:07;;;;;;;9.85;4.28;;;;;;;4.42;90.30;99823.97;5136618;27;20031;-79
2021/12/02 01:22:36;;;;;;;9.95;4.90;;;;;;;4.47;90.73;99837.75;5117966;27;20031;-78
2021/12/02 01:25:05;;;;;;;9.33;4.83;;;;;;;4.51;90.13;99839.25;5135913;27;20054;-78
2021/12/02 01:27:34;;;;;;;12.88;4.55;;;;;;;4.47;89.59;99834.22;5135735;27;20256;-80
2021/12/02 01:30:00;;;;;;;8.80;3.70;;;;;;;4.48;88.83;99820.16;5117788;27;20031;-79
2021/12/02 01:32:26;;;;;;;8.85;4.60;;;;;;;4.40;89.04;99819.72;5135966;27;20102;-80
2021/12/02 01:34:56;;;;;;;9.18;3.97;;;;;;;4.42;89.63;99823.97;5136242;27;20034;-78
2021/12/02 01:37:21;;;;;;;10.25;4.00;;;;;;;4.30;88.44;99824.63;5136005;27;20042;-80
2021/12/02 01:39:49;;;;;;;8.20;3.72;;;;;;;4.28;88.77;99829.13;5117545;27;20390;-78
2021/12/02 01:42:23;;;;;;;9.10;4.65;;;;;;;4.39;89.16;99849.63;5135896;27;20098;-79
2021/12/02 01:44:51;;;;;;;9.57;3.97;;;;;;;4.39;89.64;99849.63;5135508;27;20034;-78
2021/12/02 01:47:22;;;;;;;6.90;4.38;;;;;;;4.30;90.20;99846.53;5135703;27;20027;-79
2021/12/02 01:49:53;;;;;;;8.20;4.18;;;;;;;4.30;89.92;99845.69;5135840;27;20031;-78
2021/12/02 01:52:21;;;;;;;8.18;4.43;;;;;;;4.25;90.07;99845.94;5116977;27;20031;-79
2021/12/02 01:54:47;;;;;;;7.15;4.15;;;;;;;4.22;90.00;99848.72;5135813;27;20038;-79
2021/12/02 01:57:33;;;;;;;6.57;4.25;;;;;;;4.12;89.93;99817.69;5135348;27;20420;-77
2021/12/02 02:00:19;;;;;;;12.55;4.45;;;;;;;4.10;89.70;99834.44;5135336;27;20022;-78
2021/12/02 02:02:45;;;;;;;6.07;4.10;;;;;;;4.10;89.63;99844.97;5134890;27;20058;-78
2021/12/02 02:05:13;;;;;;;6.85;4.45;;;;;;;4.12;89.26;99836.13;5135996;27;20015;-79
2021/12/02 02:07:51;;;;;;;7.95;4.10;;;;;;;4.12;88.86;99846.66;5130786;27;20031;-78
2021/12/02 02:10:17;;;;;;;7.45;4.40;;;;;;;3.92;89.40;99835.41;5117127;27;20039;-78
2021/12/02 02:12:42;;;;;;;11.10;3.97;;;;;;;4.01;88.96;99840.19;5135320;27;20035;-79
2021/12/02 02:15:08;;;;;;;6.32;3.40;;;;;;;3.92;90.25;99848.56;5117150;27;20031;-79
2021/12/02 02:17:42;;;;;;;4.50;3.80;;;;;;;3.95;89.88;99845.75;5135102;27;20019;-80
2021/12/02 02:20:11;;;;;;;9.27;4.32;;;;;;;3.94;89.35;99858.97;5116781;27;20022;-78
2021/12/02 02:22:37;;;;;;;4.70;4.07;;;;;;;3.87;88.92;99853.19;5135001;27;20473;-78
2021/12/02 02:25:06;;;;;;;6.03;3.90;;;;;;;3.81;89.27;99843.00;5135241;27;20080;-79
2021/12/02 02:27:31;;;;;;;5.40;4.03;;;;;;;3.74;89.52;99837.22;5135178;27;20488;-78
2021/12/02 02:29:57;;;;;;;10.73;4.25;;;;;;;3.71;88.73;99834.72;5134480;27;20027;-79
2021/12/02 02:32:26;;;;;;;8.13;4.47;;;;;;;3.69;89.44;99843.63;5116343;27;20084;-78
2021/12/02 02:34:51;;;;;;;5.90;4.07;;;;;;;3.71;89.56;99832.09;5135142;27;20058;-78
2021/12/02 02:37:17;;;;;;;7.45;4.00;;;;;;;3.66;89.04;99843.78;5116696;27;20050;-79
2021/12/02 02:39:42;;;;;;;4.68;4.15;;;;;;;3.61;89.89;99839.59;5134261;27;20051;-79
2021/12/02 02:42:09;;;;;;;6.15;3.97;;;;;;;3.79;90.11;99858.00;5134522;27;20023;-78
2021/12/02 02:44:36;;;;;;;7.95;4.95;;;;;;;3.71;89.48;99844.41;5113055;27;20054;-79
2021/12/02 02:47:02;;;;;;;8.52;4.00;;;;;;;3.72;89.12;99844.31;5123816;27;20499;-79
2021/12/02 02:49:28;;;;;;;7.60;3.75;;;;;;;3.72;89.32;99851.34;5134576;27;20055;-79
2021/12/02 02:51:54;;;;;;;4.95;3.65;;;;;;;3.64;88.63;99847.31;5115491;27;20116;-80
2021/12/02 02:54:21;;;;;;;5.53;3.80;;;;;;;3.62;89.23;99851.81;5134741;27;20023;-79
2021/12/02 02:56:57;;;;;;;6.03;3.90;;;;;;;3.58;89.46;99842.38;5115716;27;20042;-78
2021/12/02 02:59:42;;;;;;;8.27;4.07;;;;;;;3.52;88.81;99850.56;5133742;27;20031;-80
2021/12/02 03:07:48;;;;;;;6.60;4.05;;;;;;;3.46;89.50;99840.38;5111220;28;20027;-78
2021/12/02 03:12:54;;;;;;;5.38;3.58;;;;;;;3.47;88.86;99855.22;5111615;28;20043;-80
2021/12/02 03:17:47;;;;;;;5.47;4.10;;;;;;;3.39;89.11;99845.09;5111559;28;20386;-78
2021/12/02 03:20:13;;;;;;;6.60;4.50;;;;;;;3.46;89.34;99856.13;5111188;28;20059;-80
2021/12/02 03:22:39;;;;;;;6.88;3.90;;;;;;;3.41;89.24;99856.38;5111338;28;20040;-78
2021/12/02 03:25:07;;;;;;;5.97;4.05;;;;;;;3.42;89.96;99854.59;5111310;28;20091;-79
2021/12/02 03:27:32;;;;;;;9.73;4.55;;;;;;;3.49;89.87;99860.41;5111191;28;20054;-78
2021/12/02 03:29:58;;;;;;;7.60;4.35;;;;;;;3.46;89.80;99861.41;5111466;28;20031;-78
2021/12/02 03:32:23;;;;;;;13.15;4.50;;;;;;;3.44;89.79;99868.50;5110725;28;20035;-79
2021/12/02 03:34:49;;;;;;;8.63;4.35;;;;;;;3.54;89.72;99876.78;5110694;28;20514;-79
2021/12/02 03:37:16;;;;;;;7.40;4.30;;;;;;;3.60;89.92;99871.22;5111286;28;20039;-80
2021/12/02 03:39:43;;;;;;;7.47;4.22;;;;;;;3.55;90.17;99870.59;5128166;27;20486;-78
2021/12/02 03:42:08;;;;;;;9.23;4.57;;;;;;;3.61;89.77;99863.25;5125292;27;20106;-79
2021/12/02 03:44:34;;;;;;;12.00;4.25;;;;;;;3.56;89.06;99865.28;5133354;27;20118;-78
2021/12/02 03:47:00;;;;;;;10.85;3.88;;;;;;;3.72;89.67;99894.28;5113085;27;20050;-78
2021/12/02 03:49:26;;;;;;;10.13;4.30;;;;;;;3.74;89.84;99895.06;5133974;27;20434;-78
2021/12/02 03:51:51;;;;;;;8.57;4.22;;;;;;;3.73;89.61;99885.44;5133435;27;20062;-80
2021/12/02 03:54:17;;;;;;;10.23;4.28;;;;;;;3.78;89.56;99883.44;5115417;28;20423;-79
2021/12/02 03:56:42;;;;;;;9.05;3.97;;;;;;;3.79;89.29;99868.50;5133243;27;20027;-78
2021/12/02 03:59:08;;;;;;;6.53;4.13;;;;;;;3.80;89.31;99867.59;5133584;27;20019;-77
2021/12/02 04:01:33;;;;;;;9.70;4.05;;;;;;;3.78;87.68;99872.91;5133433;27;20065;-78
2021/12/02 04:03:59;;;;;;;10.75;4.00;;;;;;;3.80;88.48;99872.84;5133375;27;20027;-80
2021/12/02 04:06:24;;;;;;;7.65;3.95;;;;;;;3.70;87.72;99859.31;5114739;28;20027;-79
2021/12/02 04:09:01;;;;;;;11.35;4.30;;;;;;;3.67;88.35;99858.63;5133636;27;20023;-78
2021/12/02 04:11:34;;;;;;;7.95;4.22;;;;;;;3.60;88.28;99858.94;5118420;28;20545;-78
2021/12/02 04:16:39;;;;;;;8.55;4.00;;;;;;;3.56;88.25;99860.03;5133480;28;20745;-78
2021/12/02 04:19:06;;;;;;;5.43;3.88;;;;;;;3.51;88.68;99864.66;5133738;28;20346;-78
2021/12/02 04:21:32;;;;;;;10.55;4.30;;;;;;;3.53;88.91;99867.19;5114744;28;20011;-80
2021/12/02 04:23:57;;;;;;;6.25;4.25;;;;;;;3.62;88.66;99864.97;5133431;28;20035;-79
2021/12/02 04:26:22;;;;;;;5.47;3.55;;;;;;;3.34;88.47;99815.53;5114160;28;20049;-79
2021/12/02 04:28:48;;;;;;;7.10;4.03;;;;;;;3.55;88.49;99854.81;5133227;28;20081;-78
2021/12/02 04:31:13;;;;;;;10.82;3.75;;;;;;;3.54;88.99;99853.97;5133170;28;20019;-78
2021/12/02 04:33:39;;;;;;;9.13;4.35;;;;;;;3.50;88.12;99857.72;5133199;28;20042;-78
2021/12/02 04:36:05;;;;;;;6.85;4.03;;;;;;;3.46;88.48;99861.41;5115128;28;20473;-78
2021/12/02 04:38:31;;;;;;;8.35;3.90;;;;;;;3.46;88.74;99869.28;5132513;27;20048;-78
2021/12/02 04:40:57;;;;;;;12.60;3.97;;;;;;;3.41;88.88;99856.38;5132267;28;20023;-78
2021/12/02 04:43:23;;;;;;;7.25;3.70;;;;;;;3.46;88.75;99878.94;5132943;28;20023;-79
2021/12/02 04:45:49;;;;;;;6.85;3.58;;;;;;;3.45;88.34;99880.72;5135155;27;20478;-79
2021/12/02 04:48:15;;;;;;;8.75;4.38;;;;;;;3.37;88.30;99857.44;5136502;27;20090;-80
2021/12/02 04:50:41;;;;;;;8.07;4.00;;;;;;;3.48;88.95;99885.84;5137127;27;20100;-79
2021/12/02 04:53:06;;;;;;;11.70;5.15;;;;;;;3.50;89.31;99891.00;5118613;27;20478;-78
2021/12/02 04:55:32;;;;;;;11.68;4.22;;;;;;;3.49;89.26;99892.78;5137049;27;20033;-78
2021/12/02 04:57:57;;;;;;;8.10;3.85;;;;;;;3.41;89.11;99877.41;5117926;27;20486;-77
2021/12/02 05:00:23;;;;;;;9.95;3.70;;;;;;;3.45;89.05;99882.50;5136661;27;20023;-78
2021/12/02 05:02:49;;;;;;;7.10;3.80;;;;;;;3.45;89.01;99880.72;5135825;27;20046;-80
2021/12/02 05:05:14;;;;;;;7.95;4.00;;;;;;;3.46;89.47;99889.47;5136747;27;20126;-79
2021/12/02 05:07:42;;;;;;;6.03;3.50;;;;;;;3.58;89.72;99904.63;5136514;27;20019;-79
2021/12/02 05:10:09;;;;;;;12.25;4.00;;;;;;;3.41;89.26;99876.53;5117828;27;20050;-78
2021/12/02 05:12:34;;;;;;;6.88;3.88;;;;;;;3.50;89.89;99891.00;5136118;27;20054;-78
2021/12/02 05:15:00;;;;;;;6.93;4.35;;;;;;;3.41;89.72;99887.03;5136712;27;20456;-78
2021/12/02 05:17:26;;;;;;;12.75;5.00;;;;;;;3.49;90.01;99903.28;5136931;27;20027;-79
2021/12/02 05:19:51;;;;;;;5.18;3.72;;;;;;;3.57;89.28;99919.56;5136328;27;20381;-78
2021/12/02 05:22:17;;;;;;;8.32;4.22;;;;;;;3.51;89.54;99911.97;5118066;27;20389;-80
2021/12/02 05:24:42;;;;;;;7.85;3.88;;;;;;;3.50;88.96;99912.03;5135663;27;20118;-80
2021/12/02 05:27:08;;;;;;;6.07;3.70;;;;;;;3.46;88.07;99913.13;5135819;27;20546;-80
2021/12/02 05:29:33;;;;;;;7.88;3.83;;;;;;;3.35;87.78;99926.75;5135910;27;20034;-80
2021/12/02 05:31:59;;;;;;;3.88;3.50;;;;;;;3.30;87.65;99915.66;5136089;27;20052;-79
2021/12/02 05:34:25;;;;;;;4.50;3.80;;;;;;;3.25;87.50;99907.97;5136101;27;20080;-79
2021/12/02 05:36:50;;;;;;;5.97;4.00;;;;;;;3.16;86.58;99903.16;5136667;27;20031;-79
2021/12/02 05:39:15;;;;;;;6.53;3.40;;;;;;;3.21;87.44;99902.91;5135645;27;20061;-79
2021/12/02 05:41:41;;;;;;;4.78;3.40;;;;;;;3.05;87.02;99898.41;5135474;27;20027;-78
2021/12/02 05:44:06;;;;;;;7.47;3.55;;;;;;;3.09;86.93;99912.25;5135622;27;20046;-79
2021/12/02 05:46:32;;;;;;;8.18;3.22;;;;;;;3.05;87.36;99897.56;5136094;27;20105;-78
2021/12/02 05:48:58;;;;;;;7.03;3.38;;;;;;;3.15;88.52;99925.13;5136356;27;20107;-80
2021/12/02 05:51:23;;;;;;;3.88;3.30;;;;;;;3.21;88.51;99926.56;5135890;27;20474;-79
2021/12/02 05:53:49;;;;;;;7.15;3.72;;;;;;;3.17;88.42;99921.47;5136141;27;20432;-79
2021/12/02 05:56:14;;;;;;;5.00;3.67;;;;;;;3.27;88.64;99929.78;5134192;27;20496;-78
2021/12/02 05:58:40;;;;;;;3.70;3.40;;;;;;;3.06;86.96;99929.03;5134845;27;20516;-80
2021/12/02 06:01:05;;;;;;;5.75;3.65;;;;;;;3.13;88.11;99933.06;5134996;27;20038;-78
2021/12/02 06:03:31;;;;;;;5.25;3.30;;;;;;;2.98;87.38;99904.03;5135443;27;20051;-80
2021/12/02 06:05:56;;;;;;;5.63;3.25;;;;;;;2.96;87.45;99904.09;5135717;27;20023;-80
2021/12/02 06:08:22;;;;;;;3.53;3.17;;;;;;;3.09;87.41;99918.38;5135315;27;20498;-78
2021/12/02 06:10:47;;;;;;;5.28;3.70;;;;;;;2.96;87.21;99928.59;5135588;27;20457;-81
2021/12/02 06:13:13;;;;;;;3.92;3.60;;;;;;;2.75;87.23;99897.22;5134895;27;20023;-81
2021/12/02 06:15:38;;;;;;;3.28;3.00;;;;;;;2.90;87.46;99920.16;5135396;27;20097;-80
2021/12/02 06:18:04;;;;;;;5.05;3.45;;;;;;;2.83;87.51;99921.38;5134668;27;20058;-78
2021/12/02 06:20:29;;;;;;;6.38;3.30;;;;;;;2.75;87.92;99919.06;5116369;27;20082;-79
2021/12/02 06:22:55;;;;;;;4.72;3.25;;;;;;;2.73;87.82;99927.00;5133956;27;20023;-80
2021/12/02 06:27:53;;;;;;;4.07;3.58;;;;;;;2.72;88.40;99942.84;5135044;27;20031;-79
2021/12/02 06:30:24;;;;;;;3.67;3.30;;;;;;;2.63;88.60;99936.25;5135128;27;20470;-80
2021/12/02 06:32:50;;;;;;;5.10;3.70;;;;;;;2.62;88.16;99944.19;5134718;27;20042;-79
2021/12/02 06:35:16;;;;;;;5.63;3.75;;;;;;;2.67;88.56;99950.91;5135005;27;20026;-80
2021/12/02 06:37:41;;;;;;;5.18;3.83;;;;;;;2.64;88.60;99937.09;5116688;27;20023;-81
2021/12/02 06:40:08;;;;;;;4.65;3.60;;;;;;;2.62;88.96;99941.56;5133904;27;20027;-79
2021/12/02 06:42:34;;;;;;;5.30;3.28;;;;;;;2.70;88.71;99940.28;5113938;27;20023;-80
2021/12/02 06:45:00;;;;;;;6.13;3.63;;;;;;;2.69;88.82;99928.09;5133839;27;20035;-80
2021/12/02 06:47:29;;;;;;;4.43;3.83;;;;;;;2.57;89.17;99920.78;5134135;27;20015;-79
2021/12/02 06:49:56;;;;;;;8.50;3.78;;;;;;;2.56;89.15;99924.31;5132361;27;20031;-79
2021/12/02 06:52:23;;;;;;;6.70;4.90;;;;;;;2.61;89.67;99937.22;5133417;27;20019;-81
2021/12/02 06:54:49;;;;;;;7.70;4.38;;;;;;;2.69;89.77;99959.59;5134365;27;20031;-80
2021/12/02 06:57:15;;;;;;;9.90;4.43;;;;;;;2.67;90.09;99966.66;5114447;27;20031;-79
2021/12/02 06:59:41;;;;;;;6.65;4.45;;;;;;;2.62;89.78;99965.19;5115425;27;20027;-79
2021/12/02 07:02:08;;;;;;;5.32;4.20;;;;;;;2.71;90.06;99963.00;5134652;27;20051;-78
2021/12/02 07:04:33;;;;;;;4.93;3.92;;;;;;;2.72;88.87;99980.44;5134112;27;20389;-78
2021/12/02 07:06:58;;;;;;;5.80;4.50;;;;;;;2.72;89.37;99971.72;5133857;27;20027;-79
2021/12/02 07:09:24;;;;;;;5.97;4.32;;;;;;;2.82;89.10;99991.38;5120261;27;20039;-78
2021/12/02 07:11:49;;;;;;;8.45;4.35;;;;;;;2.91;89.37;99995.38;5113912;28;20028;-80
2021/12/02 07:14:17;;;;;;;7.32;4.63;;;;;;;2.85;90.45;99978.13;5122480;27;20031;-79
2021/12/02 07:16:42;;;;;;;6.90;5.03;;;;;;;2.95;89.84;99997.81;5132446;27;20034;-78
2021/12/02 07:19:09;;;;;;;10.35;5.07;;;;;;;2.89;89.94;99984.94;5132273;27;20377;-79
2021/12/02 07:21:38;;;;;;;8.55;5.03;;;;;;;2.99;89.59;99995.03;5130023;27;20023;-79
2021/12/02 07:24:04;;;;;;;8.32;5.30;;;;;;;2.91;89.22;100004.13;5113246;27;20039;-78
2021/12/02 07:26:33;;;;;;;7.22;4.32;;;;;;;2.89;89.22;100007.75;5129641;27;20050;-79
2021/12/02 07:28:58;;;;;;;6.68;4.60;;;;;;;2.90;89.64;100002.41;5131799;27;20027;-79
2021/12/02 07:31:29;;;;;;;7.68;4.50;;;;;;;2.88;89.54;100004.25;5131512;27;20026;-79
2021/12/02 07:33:56;;;;;;;;;;;;;;;3.03;88.89;100015.84;5134677;27;20381;-79
2021/12/02 07:36:21;;;;;;;8.82;4.72;;;;;;;2.95;89.05;100020.59;5134209;27;20369;-78
2021/12/02 07:38:47;;;;;;;8.68;5.15;;;;;;;2.93;89.11;100009.28;5133549;27;20106;-79
2021/12/02 07:41:13;;;;;;;9.00;4.30;;;;;;;2.99;89.07;100022.16;5133422;27;20042;-78
2021/12/02 07:43:39;;;;;;;10.80;5.30;;;;;;;2.86;89.04;100000.00;5112545;27;20035;-80
2021/12/02 07:46:05;;;;;;;9.13;5.57;;;;;;;2.91;89.75;100017.25;5130336;27;20019;-79
2021/12/02 07:48:31;;;;;;;11.77;5.10;;;;;;;3.05;89.94;100034.16;5112004;28;20087;-80
2021/12/02 07:51:02;;;;;;;7.68;4.28;;;;;;;3.01;89.07;100015.06;5129882;27;20546;-78
2021/12/02 07:53:28;;;;;;;6.63;4.40;;;;;;;2.99;89.10;100018.66;5132142;27;20023;-80
2021/12/02 07:55:55;;;;;;;6.90;4.30;;;;;;;2.99;88.51;100030.03;5132187;27;20027;-80
2021/12/02 07:58:24;;;;;;;6.78;5.10;;;;;;;2.95;88.59;100026.69;5133650;27;20038;-81
2021/12/02 08:00:50;;;;;;;7.75;4.80;;;;;;;3.00;89.42;100031.75;5133017;27;20030;-78
2021/12/02 08:03:16;;;;;;;5.70;5.00;;;;;;;2.95;89.13;100047.69;5132889;27;20096;-80
2021/12/02 08:05:42;;;;;;;7.35;4.97;;;;;;;2.94;88.85;100045.13;5132500;27;20447;-80
2021/12/02 08:08:07;;;;;;;10.82;5.05;;;;;;;2.82;89.42;100027.28;5133491;27;20114;-80
2021/12/02 08:10:33;;;;;;;7.57;5.45;;;;;;;2.82;88.31;100032.53;5133662;28;20389;-79
2021/12/02 08:13:00;;;;;;;11.17;5.73;;;;;;;2.81;89.10;100042.22;5115078;28;20035;-79
2021/12/02 08:15:27;;;;;;;6.25;5.20;;;;;;;2.72;88.55;100034.72;5133135;28;20031;-78
2021/12/02 08:17:54;;;;;;;7.05;5.20;;;;;;;2.80;88.60;100055.41;5133511;28;20103;-80
2021/12/02 08:20:22;;;;;;;6.80;4.65;;;;;;;2.73;88.62;100054.81;5134467;27;20465;-79
2021/12/02 08:22:48;;;;;;;5.75;4.78;;;;;;;2.63;88.14;100049.13;5137149;27;20084;-80
2021/12/02 08:25:15;;;;;;;8.80;5.60;;;;;;;2.59;88.58;100050.19;5137825;27;20027;-79
2021/12/02 08:27:41;;;;;;;9.93;5.60;;;;;;;2.56;88.43;100054.69;5137540;27;20128;-79
2021/12/02 08:30:10;;;;;;;7.88;5.35;;;;;;;2.48;88.60;100049.78;5119217;27;20111;-79
2021/12/02 08:32:38;;;;;;;5.88;5.38;;;;;;;2.50;88.84;100059.28;5118962;27;20031;-81
2021/12/02 08:35:04;;;;;;;6.33;4.97;;;;;;;2.55;89.06;100063.47;5137618;27;20019;-81
2021/12/02 08:37:32;;;;;;;11.43;5.80;;;;;;;2.42;88.39;100045.63;5137434;27;20026;-79
2021/12/02 08:39:59;;;;;;;4.90;4.40;;;;;;;2.49;87.72;100048.84;5137698;27;20049;-79
2021/12/02 08:42:25;;;;;;;5.90;5.30;;;;;;;2.38;88.73;100053.69;5137082;27;20088;-80
2021/12/02 08:44:53;;;;;;;9.90;4.83;;;;;;;2.38;89.03;100053.69;5137368;27;20481;-80
2021/12/02 08:47:21;;;;;;;4.73;4.20;;;;;;;2.47;88.87;100066.41;5137506;27;20485;-81
2021/12/02 08:49:46;;;;;;;7.17;4.43;;;;;;;2.47;89.53;100074.28;5137176;27;20031;-79
2021/12/02 08:52:12;;;;;;;7.07;4.97;;;;;;;2.44;90.01;100082.31;5118775;27;21124;-81
2021/12/02 08:54:37;;;;;;;12.03;5.87;;;;;;;2.39;89.18;100079.03;5137302;27;20477;-81
2021/12/02 08:57:03;;;;;;;10.03;6.47;;;;;;;2.39;89.18;100087.75;5137201;27;20453;-79
2021/12/02 08:59:28;;;;;;;8.15;5.80;;;;;;;2.51;89.97;100120.50;5137222;27;20045;-80
2021/12/02 09:01:54;;;;;;;10.53;5.23;;;;;;;2.52;90.52;100105.59;5136891;27;20118;-78
2021/12/02 09:04:19;;;;;;;9.27;5.20;;;;;;;2.49;89.95;100096.09;5118381;27;20023;-81
2021/12/02 09:06:44;;;;;;;9.90;5.22;;;;;;;2.72;90.18;100116.13;5137063;27;20047;-81
2021/12/02 09:09:10;;;;;;;6.53;5.05;;;;;;;2.73;90.28;100109.94;5136095;27;20051;-79
2021/12/02 09:11:35;;;;;;;6.72;6.00;;;;;;;2.78;89.98;100118.47;5135915;27;20065;-79
2021/12/02 09:14:04;;;;;;;9.95;6.00;;;;;;;2.85;89.93;100122.53;5136277;27;20042;-79
2021/12/02 09:16:30;;;;;;;8.43;5.23;;;;;;;3.01;89.54;100129.78;5136875;27;20061;-79
2021/12/02 09:18:56;;;;;;;9.80;5.72;;;;;;;3.03;90.45;100123.53;5136677;27;20051;-79
2021/12/02 09:21:22;;;;;;;9.60;5.40;;;;;;;3.25;89.08;100148.88;5136368;27;20469;-79
2021/12/02 09:23:48;;;;;;;9.73;5.20;;;;;;;3.23;87.39;100143.66;5136463;27;20492;-80
2021/12/02 09:26:14;;;;;;;16.13;4.93;;;;;;;3.14;87.21;100131.78;5118261;27;20022;-80
2021/12/02 09:28:39;;;;;;;9.50;5.28;;;;;;;3.17;86.96;100138.69;5136355;27;20026;-80
2021/12/02 09:31:05;;;;;;;7.32;4.60;;;;;;;3.13;87.92;100147.63;5116259;28;20117;-79
2021/12/02 09:33:30;;;;;;;5.93;4.70;;;;;;;3.10;87.09;100151.25;5135539;27;20033;-78
2021/12/02 09:35:56;;;;;;;7.00;4.22;;;;;;;2.95;86.83;100138.78;5136286;27;20027;-80
2021/12/02 09:38:21;;;;;;;5.80;4.07;;;;;;;2.91;87.28;100132.81;5136235;27;20103;-79
2021/12/02 09:40:47;;;;;;;9.03;4.50;;;;;;;2.95;87.31;100149.28;5117733;27;20071;-78
2021/12/02 09:43:14;;;;;;;9.68;4.47;;;;;;;3.02;87.80;100153.34;5135726;27;20030;-80
2021/12/02 09:45:40;;;;;;;9.00;4.97;;;;;;;3.11;88.19;100157.34;5117623;27;20080;-81
2021/12/02 09:48:08;;;;;;;8.77;4.83;;;;;;;2.91;87.97;100119.69;5132052;27;20098;-79
2021/12/02 09:50:48;;;;;;;7.85;4.50;;;;;;;3.28;88.33;100162.72;5126228;27;20027;-80
2021/12/02 09:53:18;;;;;;;10.95;4.32;;;;;;;3.32;87.38;100156.38;5121050;27;20436;-79
2021/12/02 09:58:17;;;;;;;6.47;3.95;;;;;;;3.44;87.40;100164.66;5117692;27;20102;-81
2021/12/02 10:00:54;;;;;;;7.85;4.10;;;;;;;3.39;87.20;100135.97;5117962;27;20029;-80
2021/12/02 10:05:55;;;;;;;6.80;4.80;;;;;;;3.76;86.31;100152.69;5125619;27;20043;-81
2021/12/02 10:08:33;;;;;;;9.85;4.68;;;;;;;3.83;86.17;100140.97;5122772;27;20032;-81
2021/12/02 10:11:11;;;;;;;11.50;5.30;;;;;;;3.99;86.14;100159.50;5115123;28;20122;-79
2021/12/02 10:13:57;;;;;;;4.57;4.13;;;;;;;4.19;86.81;100172.56;5114875;28;20020;-80
2021/12/02 10:21:26;;;;;;;9.57;5.28;;;;;;;4.34;84.06;100160.47;5127619;27;20035;-82
2021/12/02 10:23:53;;;;;;;10.60;4.65;;;;;;;4.52;84.92;100174.50;5109444;27;20035;-81
2021/12/02 10:26:20;;;;;;;9.85;4.22;;;;;;;4.51;84.39;100171.03;5126700;27;20023;-81
2021/12/02 10:28:48;;;;;;;10.57;4.38;;;;;;;4.45;83.51;100167.84;5123549;27;20058;-80
2021/12/02 10:31:19;;;;;;;7.70;4.10;;;;;;;4.46;84.21;100186.19;5128986;27;20041;-79
2021/12/02 10:34:07;;;;;;;8.00;3.88;;;;;;;4.48;84.03;100186.13;5127981;27;20481;-80
2021/12/02 10:36:39;;;;;;;7.30;3.83;;;;;;;4.28;84.14;100181.81;5129826;27;20485;-81
2021/12/02 10:39:24;;;;;;;9.85;4.40;;;;;;;4.15;84.19;100186.81;5123691;27;20086;-80
2021/12/02 10:42:06;;;;;;;8.05;3.72;;;;;;;4.01;84.41;100190.09;5124911;27;20050;-78
2021/12/02 10:44:35;;;;;;;10.18;4.82;;;;;;;3.97;85.67;100195.53;5132855;27;20378;-79
2021/12/02 10:47:09;;;;;;;10.57;4.80;;;;;;;3.86;84.68;100189.03;5124548;27;20106;-79
2021/12/02 10:49:48;;;;;;;8.60;4.82;;;;;;;3.82;85.53;100200.63;5126639;27;20023;-79
2021/12/02 10:52:21;;;;;;;10.35;4.30;;;;;;;3.79;85.87;100187.56;5135977;27;20027;-81
2021/12/02 10:55:00;;;;;;;14.70;4.78;;;;;;;3.85;85.77;100205.75;5127110;27;20484;-82
2021/12/02 10:57:27;;;;;;;9.43;5.05;;;;;;;3.77;86.02;100194.72;5124983;27;20019;-79
2021/12/02 10:59:55;;;;;;;9.38;4.82;;;;;;;3.84;86.35;100205.78;5113178;27;20122;-80
2021/12/02 11:02:35;;;;;;;7.43;4.30;;;;;;;3.89;86.04;100210.84;5127474;27;20039;-80
2021/12/02 11:05:21;;;;;;;9.95;5.07;;;;;;;3.91;86.68;100211.63;5122153;27;20046;-79
2021/12/02 11:08:06;;;;;;;10.57;4.63;;;;;;;3.95;86.65;100210.56;5118685;27;20048;-80
2021/12/02 11:10:37;;;;;;;10.77;4.97;;;;;;;3.99;86.67;100212.97;5120684;27;20057;-81
2021/12/02 11:13:03;;;;;;;9.35;4.65;;;;;;;3.95;86.01;100205.31;5133718;27;20385;-81
2021/12/02 11:15:31;;;;;;;7.22;4.78;;;;;;;3.91;87.01;100207.19;5131108;27;20046;-80
2021/12/02 11:17:58;;;;;;;16.73;5.53;;;;;;;4.00;86.50;100227.84;5131038;27;20111;-79
2021/12/02 11:20:38;;;;;;;11.18;5.43;;;;;;;4.00;87.55;100237.50;5129498;27;20023;-79
2021/12/02 11:23:06;;;;;;;11.88;5.63;;;;;;;4.00;86.59;100230.50;5135659;27;20042;-81
2021/12/02 11:25:35;;;;;;;10.98;4.75;;;;;;;3.99;87.54;100212.13;5115398;27;20030;-80
2021/12/02 11:28:06;;;;;;;9.27;5.80;;;;;;;4.07;87.05;100223.16;5128428;27;20034;-81
2021/12/02 11:30:31;;;;;;;6.90;4.45;;;;;;;4.16;86.84;100213.97;5130954;27;20032;-80
2021/12/02 11:32:58;;;;;;;13.45;5.28;;;;;;;4.65;85.69;100223.03;5131107;27;20034;-80
2021/12/02 11:35:28;;;;;;;9.00;4.45;;;;;;;4.91;85.02;100227.03;5128414;27;20041;-78
2021/12/02 11:38:18;;;;;;;13.07;5.38;;;;;;;5.33;84.13;100220.50;5111457;27;20079;-80
2021/12/02 11:40:45;;;;;;;;;;;;;;;6.01;84.06;100235.44;5133891;27;20026;-78
2021/12/02 11:43:14;;;;;;;9.63;4.55;;;;;;;6.35;80.41;100232.66;5134168;27;20002;-81
2021/12/02 11:45:43;;;;;;;7.93;3.90;;;;;;;6.24;77.95;100237.69;5132575;27;20176;-79
2021/12/02 11:48:20;;;;;;;7.82;3.30;;;;;;;5.93;77.19;100249.03;5128235;27;20383;-79
2021/12/02 11:50:47;;;;;;;9.32;3.65;;;;;;;5.60;78.70;100241.09;5125853;27;20127;-81
2021/12/02 11:53:14;;;;;;;9.00;3.83;;;;;;;5.44;79.97;100247.16;5132098;27;20047;-79
2021/12/02 11:55:43;;;;;;;5.55;3.60;;;;;;;5.26;80.27;100234.06;5123823;27;20156;-79
2021/12/02 11:58:09;;;;;;;6.32;3.22;;;;;;;5.18;80.43;100229.19;5122681;27;20022;-79
2021/12/02 12:00:36;;;;;;;6.75;3.60;;;;;;;5.14;80.68;100230.25;5126270;27;20097;-79
2021/12/02 12:03:14;;;;;;;4.53;3.03;;;;;;;5.07;81.14;100229.72;5103887;28;20122;-79
2021/12/02 12:05:54;;;;;;;4.07;2.75;;;;;;;4.75;80.73;100219.00;5105003;28;20102;-80
2021/12/02 12:08:28;;;;;;;;;;;;;;;4.69;80.46;100229.84;5107330;28;20107;-78